SAAR/ROS METAR and TAF weather

Enter ICAO airport designator
Station Type Date Time Source
SAAR METAR 2020/03/29 21:00 UTC NOAA

SAAR 292100Z 05005KT CAVOK 29/19 Q1014


Station Type Date Time Source
SAAR Decoded METAR 2020/03/29 21:00 UTC NOAA

Rosario Aerodrome, Argentina (SAAR) 32-55S 060-47W 25M
Mar 29, 2020 - 05:00 PM EDT / 2020.03.29 2100 UTC
Wind: from the NE (050 degrees) at 6 MPH (5 KT):0
Visibility: greater than 7 mile(s):0
Temperature: 84 F (29 C)
Dew Point: 66 F (19 C)
Relative Humidity: 54%
Pressure (altimeter): 29.94 in. Hg (1014 hPa)
ob: SAAR 292100Z 05005KT CAVOK 29/19 Q1014
cycle: 21

Station Type Date Time Source
SAAR TAF 2020/03/29 18:07 UTC NOAA

TAF SAAR 291700Z 2918/3018 VRB03KT 9999 SCT030 FEW040 TX31/3018Z TN22/3010Z
BECMG 3005/3006 16002KT BKN020
BECMG 3008/3009 5000 BR PROB30
TEMPO 3009/3011 0800 FG
BECMG 3013/3014 08005KT CAVOK

Example: see airport list